Aérodrome :
LOGIN :

S'inscrire | Disclaimer

   EN    FR    IT 

 










Légende :    VFR   VFR Marginal   IFR   IFR Intensif   IFR Très Intensif
Visi : 
Plafond : 
>= 8 km
>= 3000ft
5 à 8 km
1000 à 3000 ft
1500m à 5 km
500 à 1000 ft
800 à 1500m
200 à 500 ft
< 800m
< 200 ft
Symboles :   Orages  Brouillard  Fortes neiges  Fortes précipitations  Vent > 20 kt
SIGMETs :   Divers  Orages  Givrage  Turbulence  Onde Orograph.  Cendres Volcan.






- Altitude de l'aérodrome : 47 ft
- Code IATA : BMA


ESSB - Stockholm-Bromma

DERNIER METAR :
  • 142020Z AUTO 13006KT 9999 FEW009/// OVC030/// 04/03 Q0986

METARs EXPIRÉS :
  • 141950Z AUTO 13006KT 9999 BKN009/// BKN013/// OVC019/// 04/03 Q0986
  • 141920Z AUTO 13007KT 9999 FEW011/// BKN018/// OVC025/// 04/03 Q0986
  • 141850Z AUTO 14008KT 9999 -RA SCT009/// BKN014/// BKN025/// 04/03 Q0986 RERA
  • 141820Z AUTO 12008KT 9999 BKN009/// BKN012/// OVC015/// 04/03 Q0986
  • 141750Z AUTO 11008KT 9999 BKN010/// OVC028/// 04/03 Q0986 RERA

Prévision TAF périmée.



MET'MAP, la Météo Aéronautique d'un coup d'oeil ! - Copyright ORBIFLY Décembre 2007 - Disclaimer

ORBIFLY MET'MAP TEAM :

Programmation & Développement : Alexandra Zaïnal
Sur une idée originale de : Baudouin d'Aumeries
Assistance à la programmation : Marc-Olivier Méhu
Soutien technique & logistique : Manuel Goepfert

Contact : metmap@orbifly.com




SOURCES & CREDITS :

   NOAA